createdAt,value
2022-10-04T00:21:53.279Z,11.46
2022-10-04T01:12:13.794Z,10.48
2022-10-04T01:32:15.525Z,11.23
2022-10-04T01:59:12.229Z,11.22
2022-10-04T02:23:19.615Z,10.02
2022-10-04T02:30:44.554Z,11.25
2022-10-04T03:12:22.575Z,11.19
2022-10-04T03:31:52.401Z,10.34
2022-10-04T03:35:44.724Z,11.08
2022-10-04T03:39:38.359Z,11.00
2022-10-04T04:24:07.828Z,10.94
2022-10-04T05:31:21.651Z,12.08
2022-10-04T05:35:26.608Z,12.12
2022-10-04T06:56:45.679Z,13.02
2022-10-04T12:20:16.247Z,16.76
2022-10-04T14:55:11.037Z,15.90
2022-10-04T15:06:57.335Z,15.91
2022-10-04T15:15:21.753Z,15.85
2022-10-04T15:19:27.726Z,15.51
2022-10-04T15:22:49.017Z,15.66
2022-10-04T15:25:59.973Z,15.67
2022-10-04T15:30:27.803Z,15.55
2022-10-04T15:33:56.738Z,15.58
2022-10-04T15:37:23.206Z,15.45
2022-10-04T15:40:56.768Z,15.44
2022-10-04T15:44:32.047Z,15.25
2022-10-04T15:48:21.983Z,15.38
2022-10-04T15:52:05.045Z,15.29
2022-10-04T15:56:06.865Z,15.27
2022-10-04T15:59:45.695Z,15.16
2022-10-04T16:03:28.757Z,15.04
2022-10-04T16:07:08.802Z,14.99
2022-10-04T16:10:56.999Z,14.98
2022-10-04T16:18:42.108Z,14.84
2022-10-04T16:27:07.839Z,14.63
2022-10-04T16:31:36.690Z,14.07
2022-10-04T16:40:15.910Z,14.35
2022-10-04T16:44:20.360Z,14.31
2022-10-04T16:56:28.264Z,14.04
2022-10-04T17:00:34.431Z,13.97
2022-10-04T17:04:09.089Z,13.88
2022-10-04T17:08:02.766Z,13.75
2022-10-04T17:11:40.376Z,13.45
2022-10-04T17:15:40.211Z,13.64
2022-10-04T17:20:03.807Z,13.55
2022-10-04T17:29:26.278Z,13.43
2022-10-04T17:37:28.129Z,12.67
2022-10-04T17:41:09.783Z,13.27
2022-10-04T17:44:34.548Z,13.26
2022-10-04T17:48:40.080Z,13.32
2022-10-04T17:56:45.581Z,13.20
2022-10-04T18:01:17.571Z,13.10
2022-10-04T18:05:01.482Z,13.10
2022-10-04T18:08:48.031Z,13.18
2022-10-04T18:11:53.573Z,13.14
2022-10-04T18:15:31.751Z,13.06
2022-10-04T18:18:51.124Z,13.02
2022-10-04T18:21:59.934Z,12.87
2022-10-04T18:25:19.704Z,12.98
2022-10-04T18:28:28.865Z,12.94
2022-10-04T18:31:46.855Z,12.89
2022-10-04T18:35:35.208Z,12.91
2022-10-04T18:39:29.796Z,12.83
2022-10-04T18:43:05.771Z,12.84
2022-10-04T18:46:17.422Z,12.90
2022-10-04T18:50:08.839Z,12.82
2022-10-04T18:53:46.840Z,12.90
2022-10-04T18:57:32.285Z,12.79
2022-10-04T19:01:26.072Z,12.85
2022-10-04T19:05:27.824Z,12.73
2022-10-04T19:08:55.350Z,12.68
2022-10-04T19:12:18.803Z,12.68
2022-10-04T19:15:53.824Z,12.63
2022-10-04T19:19:32.158Z,12.57
2022-10-04T19:23:11.780Z,12.37
2022-10-04T19:26:46.424Z,12.36
2022-10-04T19:30:25.820Z,12.37
2022-10-04T19:34:09.772Z,12.29
2022-10-04T19:37:22.846Z,12.14
2022-10-04T19:40:51.784Z,11.74
2022-10-04T19:44:20.824Z,11.78
2022-10-04T19:47:44.572Z,11.90
2022-10-04T19:51:08.851Z,12.21
2022-10-04T19:54:26.135Z,12.30
2022-10-04T19:57:44.837Z,12.27
2022-10-04T20:00:54.895Z,12.26
2022-10-04T20:04:13.930Z,12.31
2022-10-04T20:07:33.100Z,12.22
2022-10-04T20:10:44.800Z,12.19
2022-10-04T20:14:49.463Z,12.23
2022-10-04T20:18:03.792Z,12.15
2022-10-04T20:21:32.868Z,11.88
2022-10-04T20:24:50.326Z,12.07
2022-10-04T20:28:06.850Z,12.12
2022-10-04T20:31:58.853Z,12.12
2022-10-04T20:35:31.627Z,12.07
2022-10-04T20:38:51.787Z,11.84
2022-10-04T20:42:07.864Z,11.58
2022-10-04T20:45:33.118Z,11.73
2022-10-04T20:48:42.915Z,11.81
2022-10-04T20:52:07.858Z,11.51
2022-10-04T20:55:21.110Z,11.32
2022-10-04T20:58:38.808Z,11.15
2022-10-04T21:02:07.826Z,11.04
2022-10-04T21:05:23.557Z,10.98
2022-10-04T21:08:39.818Z,10.86
2022-10-04T21:11:46.667Z,10.74
2022-10-04T21:15:12.798Z,10.76
2022-10-04T21:18:38.568Z,10.61
2022-10-04T21:22:10.115Z,10.59
2022-10-04T21:25:55.036Z,10.44
2022-10-04T21:29:24.211Z,10.45
2022-10-04T21:32:52.983Z,10.40
2022-10-04T21:36:45.052Z,10.07
2022-10-04T21:40:13.190Z,10.25
2022-10-04T21:43:20.820Z,10.04
2022-10-04T21:46:29.529Z,10.13
2022-10-04T21:49:43.838Z,10.08
2022-10-04T21:53:05.539Z,10.04
2022-10-04T21:56:48.437Z,10.05
2022-10-04T22:00:16.456Z,10.01
2022-10-04T22:03:38.866Z,10.07
2022-10-04T22:06:47.704Z,10.08
2022-10-04T22:10:02.836Z,10.16
2022-10-04T22:13:10.855Z,10.16
2022-10-04T22:16:19.304Z,10.24
2022-10-04T22:19:27.854Z,10.21
2022-10-04T22:22:39.687Z,10.21
2022-10-04T22:25:54.882Z,10.18
2022-10-04T22:28:56.503Z,10.04
2022-10-04T22:32:32.826Z,10.13
2022-10-04T22:36:21.874Z,10.08
2022-10-04T22:39:24.962Z,10.08
2022-10-04T22:42:39.828Z,10.08
2022-10-04T22:45:54.942Z,9.92
2022-10-04T22:49:02.840Z,10.04
2022-10-04T22:52:18.154Z,10.03
2022-10-04T22:55:56.148Z,9.98
2022-10-04T22:59:27.052Z,9.90
2022-10-04T23:02:35.566Z,9.72
2022-10-04T23:05:49.823Z,9.83
2022-10-04T23:08:57.931Z,9.76
2022-10-04T23:12:07.638Z,9.60
2022-10-04T23:15:22.870Z,9.59
2022-10-04T23:18:39.837Z,9.55
2022-10-04T23:21:56.862Z,9.52
2022-10-04T23:24:58.836Z,9.36
2022-10-04T23:28:20.088Z,9.34
2022-10-04T23:31:34.953Z,9.43
2022-10-04T23:34:45.857Z,9.36
2022-10-04T23:37:54.724Z,9.37
2022-10-04T23:41:02.947Z,9.34
2022-10-04T23:44:41.837Z,9.30
2022-10-04T23:48:16.625Z,9.24
2022-10-04T23:51:44.868Z,9.13
2022-10-04T23:55:00.427Z,9.07
2022-10-04T23:58:23.925Z,8.89
